Time;durP1;ratioP1;P1;durP2;ratioP2;P2;SDS_P1;SDS_P2;PMS_P1;PMS_P2;Temp;Humidity;BMP_temperature;BMP_pressure;BME280_temperature;BME280_humidity;BME280_pressure;Samples;Min_cycle;Max_cycle;Signal;HPM_P1;HPM_P2
2022/10/09 00:01:52;;;;;;;0.25;0.25;;;9.20;99.90;;;;;;5031644;28;20181;-61
2022/10/09 00:04:18;;;;;;;0.10;0.08;;;9.20;99.90;;;;;;5031594;28;20678;-61
2022/10/09 00:06:43;;;;;;;0.00;0.00;;;9.20;99.90;;;;;;5031567;28;20198;-61
2022/10/09 00:09:09;;;;;;;0.20;0.20;;;9.20;99.90;;;;;;5031269;28;20662;-61
2022/10/09 00:11:35;;;;;;;0.40;0.40;;;9.10;99.90;;;;;;5031083;28;20186;-60
2022/10/09 00:14:01;;;;;;;0.88;0.68;;;9.10;99.90;;;;;;5031401;28;20232;-60
2022/10/09 00:16:28;;;;;;;0.00;0.00;;;9.10;99.90;;;;;;5031056;28;20178;-60
2022/10/09 00:18:54;;;;;;;0.10;0.10;;;9.00;99.90;;;;;;5031250;28;20555;-61
2022/10/09 00:21:25;;;;;;;0.52;0.20;;;9.10;99.90;;;;;;5031474;28;20597;-61
2022/10/09 00:23:53;;;;;;;0.75;0.75;;;9.00;99.90;;;;;;5031337;28;20190;-61
2022/10/09 00:26:19;;;;;;;0.17;0.17;;;9.00;99.90;;;;;;5030760;28;20186;-60
2022/10/09 00:28:46;;;;;;;0.00;0.00;;;9.00;99.90;;;;;;5030871;28;20218;-60
2022/10/09 00:31:12;;;;;;;1.85;0.30;;;8.90;99.90;;;;;;5031090;28;20713;-60
2022/10/09 00:33:38;;;;;;;0.90;0.90;;;8.90;99.90;;;;;;5031472;28;20181;-61
2022/10/09 00:36:12;;;;;;;0.20;0.20;;;8.90;99.90;;;;;;5031203;28;20257;-60
2022/10/09 00:38:39;;;;;;;1.02;0.65;;;8.80;99.90;;;;;;5031357;28;20672;-60
2022/10/09 00:41:05;;;;;;;0.30;0.30;;;8.80;99.90;;;;;;5030916;28;20187;-60
2022/10/09 00:43:56;;;;;;;0.75;0.75;;;8.80;99.90;;;;;;5031178;28;20186;-60
2022/10/09 00:46:46;;;;;;;0.00;0.00;;;8.80;99.90;;;;;;5011712;28;20590;-60
2022/10/09 00:49:27;;;;;;;0.15;0.15;;;8.80;99.90;;;;;;5024482;28;20198;-60
2022/10/09 00:51:57;;;;;;;0.05;0.05;;;8.80;99.90;;;;;;5030969;28;20273;-61
2022/10/09 00:54:26;;;;;;;0.40;0.40;;;8.80;99.90;;;;;;5030967;28;20182;-60
2022/10/09 00:56:53;;;;;;;0.10;0.10;;;8.70;99.90;;;;;;5031237;28;20193;-60
2022/10/09 00:59:19;;;;;;;0.22;0.22;;;8.70;99.90;;;;;;5031095;28;20190;-60
2022/10/09 01:01:45;;;;;;;0.00;0.00;;;8.70;99.90;;;;;;5031071;28;20174;-60
2022/10/09 01:04:11;;;;;;;0.00;0.00;;;8.70;99.90;;;;;;5030965;28;20224;-60
2022/10/09 01:06:47;;;;;;;0.20;0.20;;;8.70;99.90;;;;;;5031170;28;20625;-61
2022/10/09 01:09:17;;;;;;;0.00;0.00;;;8.70;99.90;;;;;;5030682;28;20213;-60
2022/10/09 01:12:13;;;;;;;0.13;0.13;;;8.70;99.90;;;;;;5030139;28;20669;-60
2022/10/09 01:14:50;;;;;;;0.00;0.00;;;8.70;99.90;;;;;;5017981;28;20190;-60
2022/10/09 01:17:18;;;;;;;0.30;0.30;;;8.70;99.90;;;;;;5031013;28;20257;-61
2022/10/09 01:20:22;;;;;;;0.00;0.00;;;8.70;99.90;;;;;;5030411;28;20182;-61
2022/10/09 01:23:09;;;;;;;0.20;0.20;;;8.60;99.90;;;;;;5022639;28;20186;-61
2022/10/09 01:25:56;;;;;;;0.00;0.00;;;8.60;99.90;;;;;;5029976;28;20178;-60
2022/10/09 01:28:29;;;;;;;0.08;0.08;;;8.60;99.90;;;;;;5030311;28;20217;-61
2022/10/09 01:31:01;;;;;;;0.55;0.32;;;8.50;99.90;;;;;;5030975;28;20243;-61
2022/10/09 01:33:29;;;;;;;0.05;0.05;;;8.50;99.90;;;;;;5030090;28;20768;-60
2022/10/09 01:35:55;;;;;;;0.00;0.00;;;8.50;99.90;;;;;;5030762;28;20190;-61
2022/10/09 01:38:23;;;;;;;0.10;0.10;;;8.50;99.90;;;;;;5033184;28;20186;-61
2022/10/09 01:40:51;;;;;;;0.00;0.00;;;8.50;99.90;;;;;;5033622;28;20667;-61
2022/10/09 01:43:16;;;;;;;0.10;0.10;;;8.50;99.90;;;;;;5033848;28;20186;-61
2022/10/09 01:45:44;;;;;;;0.00;0.00;;;8.50;99.90;;;;;;5034297;28;20447;-61
2022/10/09 01:48:22;;;;;;;0.00;0.00;;;8.40;99.90;;;;;;5033951;28;20245;-61
2022/10/09 01:50:53;;;;;;;0.00;0.00;;;8.40;99.90;;;;;;5034387;28;20178;-61
2022/10/09 01:53:22;;;;;;;0.00;0.00;;;8.40;99.90;;;;;;5030795;28;20174;-61
2022/10/09 01:55:49;;;;;;;0.00;0.00;;;8.40;99.90;;;;;;5034064;28;20673;-60
2022/10/09 01:58:47;;;;;;;0.08;0.08;;;8.40;99.90;;;;;;5033975;28;20185;-61
2022/10/09 02:01:16;;;;;;;0.52;0.47;;;8.40;99.90;;;;;;5014289;28;20179;-60
2022/10/09 02:03:45;;;;;;;0.00;0.00;;;8.40;99.90;;;;;;5028954;28;20194;-61
2022/10/09 02:06:13;;;;;;;0.00;0.00;;;8.40;99.90;;;;;;5032345;28;20290;-60
2022/10/09 02:08:40;;;;;;;0.45;0.20;;;8.40;99.90;;;;;;5033566;28;20681;-60
2022/10/09 02:11:07;;;;;;;0.15;0.15;;;8.40;99.90;;;;;;5033416;28;20178;-60
2022/10/09 02:13:34;;;;;;;0.10;0.10;;;8.40;99.90;;;;;;5033624;28;20634;-60
2022/10/09 02:16:19;;;;;;;0.00;0.00;;;8.40;99.90;;;;;;5033653;28;20600;-60
2022/10/09 02:18:49;;;;;;;0.30;0.30;;;8.30;99.90;;;;;;5032462;28;20272;-61
2022/10/09 02:21:21;;;;;;;0.10;0.10;;;8.30;99.90;;;;;;5033630;28;20209;-61
2022/10/09 02:23:48;;;;;;;0.10;0.10;;;8.30;99.90;;;;;;5033308;28;20174;-61
2022/10/09 02:26:14;;;;;;;0.00;0.00;;;8.20;99.90;;;;;;5033495;28;20256;-61
2022/10/09 02:28:40;;;;;;;0.10;0.10;;;8.20;99.90;;;;;;5033269;28;20639;-60
2022/10/09 02:31:27;;;;;;;0.00;0.00;;;8.20;99.90;;;;;;5033379;28;20174;-60
2022/10/09 02:34:02;;;;;;;0.25;0.25;;;8.20;99.90;;;;;;5033567;28;20182;-60
2022/10/09 02:36:29;;;;;;;0.00;0.00;;;8.20;99.90;;;;;;5013634;28;20708;-61
2022/10/09 02:38:55;;;;;;;0.00;0.00;;;8.20;99.90;;;;;;5024636;28;20182;-61
2022/10/09 02:41:22;;;;;;;0.05;0.05;;;8.20;99.90;;;;;;5033320;28;20178;-61
2022/10/09 02:43:48;;;;;;;0.00;0.00;;;8.20;99.90;;;;;;5033187;28;20186;-61
2022/10/09 02:46:13;;;;;;;0.00;0.00;;;8.20;99.90;;;;;;5032837;28;20178;-61
2022/10/09 02:48:39;;;;;;;0.10;0.10;;;8.20;99.90;;;;;;5032633;28;20213;-61
2022/10/09 02:51:05;;;;;;;0.10;0.10;;;8.20;99.90;;;;;;5033232;28;20174;-61
2022/10/09 02:53:30;;;;;;;0.20;0.15;;;8.20;99.90;;;;;;5033307;28;20182;-61
2022/10/09 02:55:56;;;;;;;0.20;0.20;;;8.20;99.90;;;;;;5033029;28;20189;-60
2022/10/09 02:58:22;;;;;;;0.10;0.10;;;8.10;99.90;;;;;;5032798;28;20178;-61
2022/10/09 03:00:49;;;;;;;0.45;0.38;;;8.10;99.90;;;;;;5033291;28;20189;-61
2022/10/09 03:03:15;;;;;;;0.00;0.00;;;8.10;99.90;;;;;;5032709;28;20227;-61
2022/10/09 03:05:40;;;;;;;0.10;0.10;;;8.10;99.90;;;;;;5032644;28;20628;-61
2022/10/09 03:08:06;;;;;;;0.10;0.10;;;8.10;99.90;;;;;;5032716;28;20783;-61
2022/10/09 03:10:31;;;;;;;0.00;0.00;;;8.10;99.90;;;;;;5032805;28;20672;-61
2022/10/09 03:12:57;;;;;;;0.45;0.20;;;8.10;99.90;;;;;;5032774;28;20186;-61
2022/10/09 03:15:23;;;;;;;0.13;0.13;;;8.00;99.90;;;;;;5032788;28;20186;-61
2022/10/09 03:17:49;;;;;;;0.03;0.03;;;8.00;99.90;;;;;;5032758;28;20210;-60
2022/10/09 03:20:15;;;;;;;0.00;0.00;;;8.00;99.90;;;;;;5032529;28;20185;-60
2022/10/09 03:22:40;;;;;;;0.08;0.08;;;8.00;99.90;;;;;;5032533;28;20257;-60
2022/10/09 03:25:06;;;;;;;0.10;0.10;;;8.00;99.90;;;;;;5032409;28;20214;-60
2022/10/09 03:27:32;;;;;;;0.43;0.43;;;8.00;99.90;;;;;;5032166;28;20291;-61
2022/10/09 03:29:58;;;;;;;0.08;0.08;;;7.90;99.90;;;;;;5017251;28;20221;-61
2022/10/09 03:32:24;;;;;;;0.05;0.05;;;7.90;99.90;;;;;;5030646;28;20182;-60
2022/10/09 03:34:49;;;;;;;0.38;0.38;;;7.90;99.90;;;;;;5032257;28;20182;-60
2022/10/09 03:37:15;;;;;;;0.10;0.10;;;7.90;99.90;;;;;;5032238;28;20241;-60
2022/10/09 03:39:41;;;;;;;0.00;0.00;;;7.90;99.90;;;;;;5031626;28;20208;-60
2022/10/09 03:42:06;;;;;;;0.00;0.00;;;7.90;99.90;;;;;;5030762;28;20217;-61
2022/10/09 03:44:32;;;;;;;0.47;0.30;;;7.90;99.90;;;;;;5031781;28;20240;-61
2022/10/09 03:46:57;;;;;;;0.10;0.10;;;7.80;99.90;;;;;;5031994;28;20182;-61
2022/10/09 03:49:23;;;;;;;0.00;0.00;;;7.80;99.90;;;;;;5031558;28;20181;-61
2022/10/09 03:51:48;;;;;;;0.00;0.00;;;7.80;99.90;;;;;;5031989;28;20174;-61
2022/10/09 03:54:14;;;;;;;0.22;0.13;;;7.80;99.90;;;;;;5032059;28;20273;-61
2022/10/09 03:56:39;;;;;;;0.40;0.10;;;7.80;99.90;;;;;;5031913;28;20186;-61
2022/10/09 03:59:08;;;;;;;0.00;0.00;;;7.80;99.90;;;;;;5031742;28;20178;-61
2022/10/09 04:01:34;;;;;;;0.20;0.20;;;7.80;99.90;;;;;;5030995;28;20661;-61
2022/10/09 04:04:00;;;;;;;0.13;0.05;;;7.80;99.90;;;;;;5031765;28;20178;-61
2022/10/09 04:06:25;;;;;;;0.05;0.05;;;7.80;99.90;;;;;;5031598;28;20201;-61
2022/10/09 04:08:51;;;;;;;0.00;0.00;;;7.80;99.90;;;;;;5031703;28;20225;-60
2022/10/09 04:11:16;;;;;;;0.00;0.00;;;7.70;99.90;;;;;;5031937;28;20170;-61
2022/10/09 04:13:42;;;;;;;0.00;0.00;;;7.70;99.90;;;;;;5031641;28;20360;-60
2022/10/09 04:16:11;;;;;;;0.10;0.10;;;7.70;99.90;;;;;;5031424;28;20181;-61
2022/10/09 04:18:38;;;;;;;0.00;0.00;;;7.70;99.90;;;;;;5017158;28;20182;-60
2022/10/09 04:21:04;;;;;;;0.17;0.17;;;7.70;99.90;;;;;;5031437;28;20265;-60
2022/10/09 04:23:29;;;;;;;0.20;0.20;;;7.60;99.90;;;;;;5031353;28;20646;-60
2022/10/09 04:25:59;;;;;;;0.00;0.00;;;7.60;99.90;;;;;;5031651;28;20182;-61
2022/10/09 04:28:27;;;;;;;0.10;0.10;;;7.60;99.90;;;;;;5022880;28;20206;-61
2022/10/09 04:30:52;;;;;;;0.28;0.28;;;7.60;99.90;;;;;;5031396;28;20206;-61
2022/10/09 04:33:18;;;;;;;0.30;0.30;;;7.60;99.90;;;;;;5031626;28;20272;-60
2022/10/09 04:35:45;;;;;;;0.00;0.00;;;7.60;99.90;;;;;;5031316;28;20175;-60
2022/10/09 04:38:11;;;;;;;0.00;0.00;;;7.60;99.90;;;;;;5031169;28;20681;-61
2022/10/09 04:40:37;;;;;;;0.00;0.00;;;7.50;99.90;;;;;;5031450;28;20180;-61
2022/10/09 04:43:03;;;;;;;0.00;0.00;;;7.50;99.90;;;;;;5030765;28;20446;-61
2022/10/09 04:45:28;;;;;;;0.00;0.00;;;7.50;99.90;;;;;;5031120;28;20182;-60
2022/10/09 04:47:54;;;;;;;0.00;0.00;;;7.50;99.90;;;;;;5031400;28;20206;-61
2022/10/09 04:50:19;;;;;;;0.00;0.00;;;7.50;99.90;;;;;;5030721;28;20178;-61
2022/10/09 04:52:45;;;;;;;0.00;0.00;;;7.50;99.90;;;;;;5031011;28;20260;-61
2022/10/09 04:55:10;;;;;;;0.10;0.10;;;7.40;99.90;;;;;;5029932;28;20189;-61
2022/10/09 04:57:36;;;;;;;0.05;0.05;;;7.40;99.90;;;;;;5031166;28;20183;-60
2022/10/09 05:00:02;;;;;;;0.00;0.00;;;7.40;99.90;;;;;;5029477;28;20189;-61
2022/10/09 05:02:29;;;;;;;0.00;0.00;;;7.40;99.90;;;;;;5011665;28;20179;-61
2022/10/09 05:04:56;;;;;;;0.00;0.00;;;7.40;99.90;;;;;;5021362;28;20261;-60
2022/10/09 05:07:22;;;;;;;0.00;0.00;;;7.40;99.90;;;;;;5030763;28;20334;-60
2022/10/09 05:09:47;;;;;;;0.05;0.05;;;7.40;99.90;;;;;;5011321;28;20691;-61
2022/10/09 05:12:13;;;;;;;0.00;0.00;;;7.30;99.90;;;;;;5022203;28;20235;-61
2022/10/09 05:14:38;;;;;;;0.00;0.00;;;7.30;99.90;;;;;;5034927;28;20186;-61
2022/10/09 05:17:04;;;;;;;0.00;0.00;;;7.30;99.90;;;;;;5034924;28;20193;-61
2022/10/09 05:19:31;;;;;;;0.00;0.00;;;7.30;99.90;;;;;;5034761;28;20182;-60
2022/10/09 05:21:57;;;;;;;0.00;0.00;;;7.30;99.90;;;;;;5034567;28;20190;-61
2022/10/09 05:24:23;;;;;;;0.00;0.00;;;7.30;99.90;;;;;;5034834;28;20236;-61
2022/10/09 05:26:48;;;;;;;0.00;0.00;;;7.20;99.90;;;;;;5034549;28;20186;-61
2022/10/09 05:29:14;;;;;;;0.00;0.00;;;7.20;99.90;;;;;;5034177;28;20217;-60
2022/10/09 05:31:41;;;;;;;0.45;0.45;;;7.20;99.90;;;;;;5034610;28;20182;-60
2022/10/09 05:34:07;;;;;;;0.05;0.05;;;7.10;99.90;;;;;;5034598;28;20186;-60
2022/10/09 05:36:32;;;;;;;0.00;0.00;;;7.10;99.90;;;;;;5034417;28;20178;-61
2022/10/09 05:39:00;;;;;;;0.00;0.00;;;7.10;99.90;;;;;;5034424;28;20182;-60
2022/10/09 05:41:27;;;;;;;0.00;0.00;;;7.10;99.90;;;;;;5034323;28;20193;-61
2022/10/09 05:43:52;;;;;;;0.00;0.00;;;7.10;99.90;;;;;;5033785;28;20189;-60
2022/10/09 05:46:22;;;;;;;0.00;0.00;;;7.10;99.90;;;;;;5034105;28;20185;-61
2022/10/09 05:48:59;;;;;;;0.00;0.00;;;7.10;99.90;;;;;;5045202;28;20253;-60
2022/10/09 05:51:28;;;;;;;0.00;0.00;;;7.10;99.90;;;;;;5034276;28;20240;-60
2022/10/09 05:53:55;;;;;;;0.00;0.00;;;7.10;99.90;;;;;;5033927;28;20224;-61
2022/10/09 05:56:25;;;;;;;0.00;0.00;;;7.20;99.90;;;;;;5033798;28;20603;-60
2022/10/09 05:58:56;;;;;;;0.40;0.10;;;7.20;99.90;;;;;;5032417;28;20178;-60
2022/10/09 06:01:25;;;;;;;0.15;0.15;;;7.20;99.90;;;;;;5033717;28;20183;-60
2022/10/09 06:03:52;;;;;;;0.10;0.10;;;7.20;99.90;;;;;;5033625;28;20535;-61
2022/10/09 06:06:19;;;;;;;0.10;0.10;;;7.20;99.90;;;;;;5033147;28;20556;-61
2022/10/09 06:08:45;;;;;;;0.03;0.03;;;7.30;99.90;;;;;;5034000;28;20221;-61
2022/10/09 06:11:16;;;;;;;0.00;0.00;;;7.30;99.90;;;;;;5033357;28;20532;-61
2022/10/09 06:13:42;;;;;;;0.00;0.00;;;7.30;99.90;;;;;;5033616;28;20193;-61
2022/10/09 06:16:10;;;;;;;0.00;0.00;;;7.30;99.90;;;;;;5033491;28;20594;-60
2022/10/09 06:18:36;;;;;;;0.00;0.00;;;7.40;99.90;;;;;;5033451;28;20182;-60
2022/10/09 06:21:02;;;;;;;0.22;0.22;;;7.50;99.90;;;;;;5033123;28;20193;-61
2022/10/09 06:23:28;;;;;;;0.00;0.00;;;7.50;99.90;;;;;;5032026;28;20611;-61
2022/10/09 06:25:56;;;;;;;0.17;0.17;;;7.60;99.90;;;;;;5032573;28;20185;-60
2022/10/09 06:28:22;;;;;;;0.25;0.25;;;7.60;99.90;;;;;;5032237;28;20210;-61
2022/10/09 06:30:48;;;;;;;0.00;0.00;;;7.60;99.90;;;;;;5032888;28;20183;-61
2022/10/09 06:33:14;;;;;;;0.28;0.22;;;7.70;99.90;;;;;;5033445;28;20190;-61
2022/10/09 06:35:40;;;;;;;0.03;0.03;;;7.80;99.90;;;;;;5033155;28;20185;-61
2022/10/09 06:38:06;;;;;;;0.05;0.05;;;7.90;99.90;;;;;;5033143;28;20182;-60
2022/10/09 06:40:35;;;;;;;0.17;0.10;;;8.00;99.90;;;;;;5032645;28;20264;-59
2022/10/09 06:43:02;;;;;;;0.00;0.00;;;8.30;99.90;;;;;;5033195;28;20187;-61
2022/10/09 06:45:28;;;;;;;0.00;0.00;;;8.50;99.90;;;;;;5032608;28;20201;-58
2022/10/09 06:47:54;;;;;;;0.38;0.30;;;8.80;99.90;;;;;;5032857;28;20210;-59
2022/10/09 06:50:19;;;;;;;0.00;0.00;;;9.20;99.90;;;;;;5032964;28;20189;-58
2022/10/09 06:52:45;;;;;;;0.20;0.20;;;9.60;99.90;;;;;;5032895;28;20178;-58
2022/10/09 06:55:10;;;;;;;0.00;0.00;;;9.90;99.90;;;;;;5033367;28;20600;-60
2022/10/09 06:57:36;;;;;;;0.00;0.00;;;10.20;99.90;;;;;;5032838;28;20228;-60
2022/10/09 07:00:02;;;;;;;0.00;0.00;;;10.60;99.90;;;;;;5032944;28;20260;-60
2022/10/09 07:02:30;;;;;;;0.00;0.00;;;10.90;99.90;;;;;;5032381;28;20537;-60
2022/10/09 07:04:55;;;;;;;0.00;0.00;;;11.10;99.90;;;;;;5032776;28;20592;-60
2022/10/09 07:07:21;;;;;;;0.10;0.10;;;11.40;99.90;;;;;;5032226;28;20202;-60
2022/10/09 07:09:46;;;;;;;0.00;0.00;;;11.80;99.90;;;;;;5032884;28;20232;-61
2022/10/09 07:12:12;;;;;;;0.00;0.00;;;12.20;99.90;;;;;;5032096;28;20200;-59
2022/10/09 07:14:37;;;;;;;0.47;0.47;;;12.40;99.90;;;;;;5032790;28;20204;-59
2022/10/09 07:17:04;;;;;;;0.00;0.00;;;12.60;99.90;;;;;;5031831;28;20534;-61
2022/10/09 07:19:30;;;;;;;0.00;0.00;;;12.80;99.90;;;;;;5031656;28;20580;-61
2022/10/09 07:21:55;;;;;;;0.00;0.00;;;13.20;99.90;;;;;;5036521;28;20178;-61
2022/10/09 07:24:23;;;;;;;0.00;0.00;;;13.60;99.90;;;;;;5032477;28;20186;-61
2022/10/09 07:26:49;;;;;;;0.00;0.00;;;14.00;99.90;;;;;;5032290;28;20181;-60
2022/10/09 07:29:16;;;;;;;0.10;0.10;;;14.40;99.90;;;;;;5032250;28;20217;-61
2022/10/09 07:31:42;;;;;;;0.52;0.52;;;14.70;99.90;;;;;;5032102;28;20228;-61
2022/10/09 07:34:09;;;;;;;0.00;0.00;;;15.00;99.90;;;;;;5032306;28;20735;-61
2022/10/09 07:36:34;;;;;;;0.00;0.00;;;15.20;99.90;;;;;;5032462;28;20181;-61
2022/10/09 07:39:01;;;;;;;0.10;0.10;;;15.50;99.90;;;;;;5032299;28;20178;-61
2022/10/09 07:41:28;;;;;;;0.00;0.00;;;15.80;99.90;;;;;;5032355;28;20188;-61
2022/10/09 07:43:54;;;;;;;0.10;0.10;;;15.90;99.30;;;;;;5032377;28;20182;-61
2022/10/09 07:46:21;;;;;;;0.00;0.00;;;16.00;99.60;;;;;;5032141;28;20209;-61
2022/10/09 07:48:47;;;;;;;0.00;0.00;;;16.10;99.20;;;;;;5031752;28;20768;-61
2022/10/09 07:51:24;;;;;;;0.00;0.00;;;16.30;99.20;;;;;;5031808;28;20637;-61
2022/10/09 07:53:50;;;;;;;0.00;0.00;;;16.70;98.60;;;;;;5032500;28;20181;-61
2022/10/09 07:56:16;;;;;;;0.00;0.00;;;16.90;98.10;;;;;;5032226;28;20174;-61
2022/10/09 07:58:46;;;;;;;0.20;0.20;;;17.00;97.40;;;;;;5032322;28;20182;-61
2022/10/09 08:01:12;;;;;;;0.00;0.00;;;17.20;97.40;;;;;;5032186;28;20177;-61
2022/10/09 08:03:37;;;;;;;0.10;0.10;;;17.30;97.10;;;;;;5032198;28;20188;-61
2022/10/09 08:06:03;;;;;;;0.00;0.00;;;17.50;96.60;;;;;;5031818;28;20232;-61
2022/10/09 08:08:29;;;;;;;0.00;0.00;;;17.70;96.20;;;;;;5032088;28;20271;-61
2022/10/09 08:10:54;;;;;;;0.00;0.00;;;17.80;95.70;;;;;;5032033;28;20638;-61
2022/10/09 08:13:20;;;;;;;0.00;0.00;;;17.90;95.30;;;;;;5031493;28;20186;-61
2022/10/09 08:15:46;;;;;;;0.00;0.00;;;18.00;95.30;;;;;;5031483;28;20189;-61
2022/10/09 08:18:12;;;;;;;0.00;0.00;;;18.10;95.10;;;;;;5031538;28;20182;-61
2022/10/09 08:20:37;;;;;;;0.00;0.00;;;18.20;94.90;;;;;;5031867;28;20181;-61
2022/10/09 08:23:03;;;;;;;0.00;0.00;;;18.40;94.50;;;;;;5031453;28;20182;-60
2022/10/09 08:25:32;;;;;;;0.00;0.00;;;18.60;94.20;;;;;;5031495;28;20185;-61
2022/10/09 08:27:58;;;;;;;0.00;0.00;;;18.80;94.30;;;;;;5031602;28;20222;-61
2022/10/09 08:30:23;;;;;;;0.00;0.00;;;18.90;93.50;;;;;;5030906;28;20194;-62
2022/10/09 08:32:49;;;;;;;0.00;0.00;;;18.90;92.70;;;;;;5031142;28;20248;-62
2022/10/09 08:35:14;;;;;;;0.00;0.00;;;18.90;92.90;;;;;;5032121;28;20913;-61
2022/10/09 08:37:40;;;;;;;0.00;0.00;;;18.90;93.00;;;;;;5031657;28;20240;-62
2022/10/09 08:40:06;;;;;;;0.00;0.00;;;19.00;93.20;;;;;;5031007;28;20551;-61
2022/10/09 08:42:44;;;;;;;0.00;0.00;;;19.10;92.60;;;;;;5031362;28;20575;-61
2022/10/09 08:45:16;;;;;;;0.38;0.38;;;19.10;92.80;;;;;;5031404;28;20189;-61
2022/10/09 08:48:00;;;;;;;0.00;0.00;;;19.00;92.70;;;;;;5033094;28;20618;-61
2022/10/09 08:50:32;;;;;;;0.00;0.00;;;18.90;92.80;;;;;;5035261;28;20186;-61
2022/10/09 08:53:18;;;;;;;0.00;0.00;;;18.80;92.50;;;;;;5035545;28;20661;-61
2022/10/09 08:55:56;;;;;;;0.00;0.00;;;18.60;93.00;;;;;;5034927;28;20273;-61
2022/10/09 08:58:27;;;;;;;0.10;0.10;;;18.50;93.50;;;;;;5035149;28;20224;-61
2022/10/09 09:01:18;;;;;;;0.20;0.20;;;18.40;93.50;;;;;;5035258;28;20182;-62
2022/10/09 09:04:01;;;;;;;0.00;0.00;;;18.40;93.50;;;;;;5034726;28;20182;-62
2022/10/09 09:06:47;;;;;;;2.88;0.13;;;18.40;94.50;;;;;;5035221;28;20194;-62
2022/10/09 09:09:48;;;;;;;0.00;0.00;;;18.50;94.00;;;;;;5030741;28;20418;-62
2022/10/09 09:12:45;;;;;;;0.00;0.00;;;18.50;93.20;;;;;;5024394;28;20712;-62
2022/10/09 09:15:46;;;;;;;0.00;0.00;;;18.40;93.20;;;;;;5034773;28;20177;-61
2022/10/09 09:18:27;;;;;;;0.00;0.00;;;18.30;93.30;;;;;;5021635;28;20190;-62
2022/10/09 09:20:56;;;;;;;0.00;0.00;;;18.30;93.90;;;;;;5035344;28;20193;-62
2022/10/09 09:23:39;;;;;;;0.00;0.00;;;18.40;93.30;;;;;;5034851;28;20194;-62
2022/10/09 09:26:13;;;;;;;0.00;0.00;;;18.40;92.40;;;;;;5034095;28;20749;-62
2022/10/09 09:28:41;;;;;;;0.10;0.10;;;18.10;92.10;;;;;;5034595;28;20219;-62
2022/10/09 09:31:12;;;;;;;0.00;0.00;;;18.00;93.00;;;;;;5034823;28;20201;-61
2022/10/09 09:33:47;;;;;;;0.10;0.10;;;18.10;92.90;;;;;;5034804;28;20190;-61
2022/10/09 09:36:27;;;;;;;0.20;0.20;;;18.10;93.00;;;;;;5034775;28;20650;-61
2022/10/09 09:38:52;;;;;;;0.10;0.10;;;18.00;93.40;;;;;;5034735;28;20630;-62
2022/10/09 09:41:18;;;;;;;0.00;0.00;;;17.90;93.20;;;;;;5034803;28;20289;-61
2022/10/09 09:43:44;;;;;;;0.00;0.00;;;17.90;92.70;;;;;;5034580;28;20209;-62
2022/10/09 09:46:18;;;;;;;0.00;0.00;;;17.90;93.10;;;;;;5034581;28;20196;-61
2022/10/09 09:48:47;;;;;;;0.00;0.00;;;17.90;92.80;;;;;;5034328;28;20220;-62
2022/10/09 09:51:21;;;;;;;0.00;0.00;;;17.80;92.30;;;;;;5035837;28;20261;-61
2022/10/09 09:54:09;;;;;;;0.00;0.00;;;17.80;92.60;;;;;;5034471;28;20205;-62
2022/10/09 09:56:43;;;;;;;0.00;0.00;;;17.80;93.50;;;;;;5037013;28;20182;-61
2022/10/09 09:59:37;;;;;;;0.00;0.00;;;17.80;93.70;;;;;;5034081;28;20177;-62
2022/10/09 10:02:19;;;;;;;0.00;0.00;;;18.00;93.40;;;;;;5034277;28;20189;-61
2022/10/09 10:04:59;;;;;;;0.00;0.00;;;18.10;93.20;;;;;;5048139;28;20570;-62
2022/10/09 10:07:37;;;;;;;0.00;0.00;;;18.30;93.30;;;;;;5014491;28;20214;-62
2022/10/09 10:10:17;;;;;;;0.00;0.00;;;18.40;92.40;;;;;;5013800;28;20236;-61
2022/10/09 10:12:53;;;;;;;0.00;0.00;;;18.40;92.20;;;;;;5034448;28;20174;-62
2022/10/09 10:15:25;;;;;;;0.03;0.03;;;18.50;92.30;;;;;;5033844;28;20178;-62
2022/10/09 10:18:03;;;;;;;0.10;0.10;;;18.50;92.50;;;;;;5033947;28;20569;-62
2022/10/09 10:20:31;;;;;;;0.15;0.15;;;18.70;92.00;;;;;;5024962;28;20534;-62
2022/10/09 10:22:59;;;;;;;0.05;0.05;;;18.60;90.40;;;;;;5034140;28;20213;-61
2022/10/09 10:25:30;;;;;;;0.00;0.00;;;18.50;90.60;;;;;;5033524;28;20193;-60
2022/10/09 10:28:02;;;;;;;0.00;0.00;;;18.60;90.70;;;;;;5040474;28;20202;-61
2022/10/09 10:30:28;;;;;;;0.00;0.00;;;18.70;91.20;;;;;;5034089;28;20236;-62
2022/10/09 10:33:14;;;;;;;0.00;0.00;;;18.90;90.90;;;;;;5033472;28;20182;-61
2022/10/09 10:35:43;;;;;;;0.00;0.00;;;19.00;90.80;;;;;;5033992;28;20257;-61
2022/10/09 10:38:20;;;;;;;0.15;0.05;;;19.20;90.60;;;;;;5040236;28;20182;-61
2022/10/09 10:40:57;;;;;;;0.32;0.28;;;19.30;90.20;;;;;;5014075;28;20186;-61
2022/10/09 10:43:44;;;;;;;0.00;0.00;;;19.40;90.20;;;;;;5013813;28;20670;-61
2022/10/09 10:46:14;;;;;;;0.00;0.00;;;19.50;88.70;;;;;;5013953;28;20179;-61
2022/10/09 10:48:42;;;;;;;0.00;0.00;;;19.50;87.40;;;;;;5018891;28;20206;-61
2022/10/09 10:51:41;;;;;;;0.20;0.00;;;19.50;86.90;;;;;;5032956;28;20189;-61
2022/10/09 10:54:23;;;;;;;0.00;0.00;;;19.50;84.60;;;;;;5013652;28;20175;-61
2022/10/09 10:57:00;;;;;;;0.00;0.00;;;19.50;82.50;;;;;;5013879;28;20207;-61
2022/10/09 10:59:39;;;;;;;0.00;0.00;;;19.50;82.20;;;;;;5013644;28;20183;-61
2022/10/09 11:02:16;;;;;;;0.10;0.10;;;19.50;82.00;;;;;;5033011;28;20192;-62
2022/10/09 11:04:54;;;;;;;0.10;0.10;;;19.60;80.50;;;;;;5033287;28;20221;-61
2022/10/09 11:07:38;;;;;;;0.00;0.00;;;19.60;80.80;;;;;;5012210;28;20244;-61
2022/10/09 11:10:22;;;;;;;0.00;0.00;;;19.80;81.10;;;;;;5032015;28;20190;-61
2022/10/09 11:13:03;;;;;;;0.00;0.00;;;19.90;78.30;;;;;;5032929;28;20646;-61
2022/10/09 11:15:59;;;;;;;0.10;0.10;;;20.00;79.00;;;;;;5032832;28;20182;-61
2022/10/09 11:18:47;;;;;;;0.00;0.00;;;20.20;77.00;;;;;;5032609;28;20178;-61
2022/10/09 11:21:32;;;;;;;0.00;0.00;;;20.20;77.50;;;;;;5032341;28;20192;-60
2022/10/09 11:24:16;;;;;;;0.00;0.00;;;20.20;76.30;;;;;;5018543;28;20324;-60
2022/10/09 11:27:10;;;;;;;0.00;0.00;;;20.20;73.40;;;;;;5032590;28;20657;-60
2022/10/09 11:29:47;;;;;;;0.85;0.10;;;20.10;70.70;;;;;;5032871;28;20681;-60
2022/10/09 11:32:19;;;;;;;0.00;0.00;;;20.00;69.60;;;;;;5032280;28;20537;-60
2022/10/09 11:34:57;;;;;;;0.00;0.00;;;19.80;69.30;;;;;;5032134;28;20202;-60
2022/10/09 11:37:29;;;;;;;0.00;0.00;;;19.80;70.40;;;;;;5032741;28;20173;-60
2022/10/09 11:39:55;;;;;;;0.00;0.00;;;19.90;71.00;;;;;;5032628;28;20228;-61
2022/10/09 11:42:23;;;;;;;0.00;0.00;;;19.90;71.30;;;;;;5032374;28;20197;-60
2022/10/09 11:44:58;;;;;;;0.10;0.10;;;20.10;71.00;;;;;;5032643;28;20216;-61
2022/10/09 11:47:39;;;;;;;0.00;0.00;;;20.20;69.10;;;;;;5031930;28;20638;-60
2022/10/09 11:50:31;;;;;;;0.00;0.00;;;20.20;68.80;;;;;;5032362;28;20178;-61
2022/10/09 11:53:09;;;;;;;0.00;0.00;;;20.20;69.70;;;;;;5032453;28;20273;-61
2022/10/09 11:55:36;;;;;;;0.00;0.00;;;20.20;70.10;;;;;;5032451;28;20182;-61
2022/10/09 11:58:07;;;;;;;0.47;0.10;;;20.20;68.10;;;;;;5032254;28;20181;-61
2022/10/09 12:00:35;;;;;;;0.00;0.00;;;20.10;68.90;;;;;;5032349;28;20585;-61
2022/10/09 12:03:04;;;;;;;0.00;0.00;;;20.10;68.90;;;;;;5032295;28;20535;-61
2022/10/09 12:05:48;;;;;;;0.00;0.00;;;20.00;69.70;;;;;;5032144;28;20591;-61
2022/10/09 12:08:25;;;;;;;0.32;0.30;;;19.90;69.80;;;;;;5032080;28;20205;-61
2022/10/09 12:10:59;;;;;;;0.00;0.00;;;19.90;69.20;;;;;;5032291;28;20181;-61
2022/10/09 12:13:50;;;;;;;0.00;0.00;;;19.80;68.90;;;;;;5043654;28;20537;-61
2022/10/09 12:16:32;;;;;;;0.00;0.00;;;19.80;69.20;;;;;;5043326;28;20174;-60
2022/10/09 12:19:00;;;;;;;0.00;0.00;;;19.80;70.20;;;;;;5031520;28;20189;-60
2022/10/09 12:21:50;;;;;;;0.10;0.03;;;19.80;69.70;;;;;;5031273;28;20170;-61
2022/10/09 12:24:23;;;;;;;0.00;0.00;;;19.80;70.40;;;;;;5030921;28;20240;-60
2022/10/09 12:26:51;;;;;;;0.10;0.10;;;19.80;70.70;;;;;;5031992;28;20196;-61
2022/10/09 12:29:26;;;;;;;0.00;0.00;;;19.80;69.90;;;;;;5030928;28;20555;-60
2022/10/09 12:31:55;;;;;;;0.00;0.00;;;19.70;69.90;;;;;;5031523;28;20185;-62
2022/10/09 12:34:32;;;;;;;0.00;0.00;;;19.80;71.10;;;;;;5031498;28;20201;-61
2022/10/09 12:37:15;;;;;;;0.05;0.05;;;19.90;69.90;;;;;;5030905;28;20193;-61
2022/10/09 12:39:41;;;;;;;0.00;0.00;;;19.80;70.40;;;;;;5031637;28;20543;-60
2022/10/09 12:42:17;;;;;;;0.10;0.10;;;19.70;70.20;;;;;;5031189;28;20182;-60
2022/10/09 12:44:44;;;;;;;0.00;0.00;;;19.70;71.60;;;;;;5031391;28;20599;-61
2022/10/09 12:47:28;;;;;;;0.00;0.00;;;19.60;72.40;;;;;;5031433;28;20186;-62
2022/10/09 12:49:59;;;;;;;0.00;0.00;;;19.60;70.80;;;;;;5031482;28;20198;-62
2022/10/09 12:52:25;;;;;;;0.00;0.00;;;19.60;71.60;;;;;;5030896;28;20557;-61
2022/10/09 12:54:51;;;;;;;0.10;0.10;;;19.60;71.70;;;;;;5031161;28;20232;-62
2022/10/09 12:57:17;;;;;;;0.00;0.00;;;19.60;71.40;;;;;;5031083;28;20174;-62
2022/10/09 12:59:45;;;;;;;0.15;0.15;;;19.50;70.80;;;;;;5030845;28;20186;-62
2022/10/09 13:02:15;;;;;;;0.22;0.22;;;19.40;70.70;;;;;;5031282;28;20189;-62
2022/10/09 13:04:41;;;;;;;0.00;0.00;;;19.40;71.80;;;;;;5030545;28;20237;-62
2022/10/09 13:07:20;;;;;;;0.00;0.00;;;19.40;72.00;;;;;;5031249;28;20181;-62
2022/10/09 13:09:46;;;;;;;0.00;0.00;;;19.40;71.70;;;;;;5031158;28;20190;-61
2022/10/09 13:12:24;;;;;;;0.00;0.00;;;19.40;71.20;;;;;;5031046;28;20182;-61